createdAt,value
2017-08-13T00:00:26.602Z,0
2017-08-13T00:01:27.825Z,0
2017-08-13T00:02:29.321Z,0
2017-08-13T00:03:30.278Z,0
2017-08-13T00:04:31.120Z,0
2017-08-13T00:05:31.866Z,0
2017-08-13T00:06:32.611Z,0
2017-08-13T00:07:33.375Z,0
2017-08-13T00:08:34.064Z,0
2017-08-13T00:09:34.921Z,0
2017-08-13T00:10:35.588Z,0
2017-08-13T00:11:42.640Z,0
2017-08-13T00:13:58.989Z,0
2017-08-13T00:14:59.737Z,0
2017-08-13T00:16:00.496Z,0
2017-08-13T00:17:01.665Z,0
2017-08-13T00:18:02.604Z,0
2017-08-13T00:19:09.703Z,0
2017-08-13T00:23:57.395Z,0
2017-08-13T00:24:58.122Z,0
2017-08-13T00:25:58.971Z,0
2017-08-13T00:26:59.729Z,0
2017-08-13T00:28:00.727Z,0
2017-08-13T00:29:01.762Z,0
2017-08-13T00:30:02.462Z,0
2017-08-13T00:31:03.570Z,0
2017-08-13T00:32:04.319Z,0
2017-08-13T00:33:05.216Z,0
2017-08-13T00:34:06.419Z,0
2017-08-13T00:35:07.610Z,0
2017-08-13T00:36:08.476Z,0
2017-08-13T00:37:09.235Z,0
2017-08-13T00:38:10.260Z,0
2017-08-13T00:39:11.136Z,0
2017-08-13T00:40:12.765Z,0
2017-08-13T00:41:13.503Z,0
2017-08-13T00:42:14.360Z,0
2017-08-13T00:43:15.078Z,0
2017-08-13T00:44:15.793Z,0
2017-08-13T00:45:16.781Z,0
2017-08-13T00:46:17.689Z,0
2017-08-13T00:47:18.437Z,0
2017-08-13T00:48:19.151Z,0
2017-08-13T00:49:19.877Z,0
2017-08-13T00:50:20.634Z,0
2017-08-13T00:51:21.413Z,0
2017-08-13T00:52:22.139Z,0
2017-08-13T00:53:23.129Z,0
2017-08-13T00:54:23.897Z,0
2017-08-13T00:55:24.892Z,0
2017-08-13T00:56:25.840Z,0
2017-08-13T00:57:26.544Z,0
2017-08-13T00:58:27.293Z,0
2017-08-13T00:59:28.013Z,0
2017-08-13T01:00:28.955Z,0
2017-08-13T01:01:29.813Z,0
2017-08-13T01:02:30.569Z,0
2017-08-13T01:03:31.324Z,0
2017-08-13T01:04:32.063Z,0
2017-08-13T01:06:48.333Z,0
2017-08-13T01:07:49.163Z,0
2017-08-13T01:08:49.904Z,0
2017-08-13T01:09:50.764Z,0
2017-08-13T01:10:51.825Z,0
2017-08-13T01:11:52.595Z,0
2017-08-13T01:12:53.418Z,0
2017-08-13T01:13:54.453Z,0
2017-08-13T01:14:55.305Z,0
2017-08-13T01:15:56.335Z,0
2017-08-13T01:16:57.324Z,0
2017-08-13T01:17:58.946Z,0
2017-08-13T01:18:59.862Z,0
2017-08-13T01:20:01.237Z,0
2017-08-13T01:21:02.062Z,0
2017-08-13T01:22:02.860Z,0
2017-08-13T01:23:03.620Z,0
2017-08-13T01:24:04.632Z,0
2017-08-13T01:25:05.807Z,0
2017-08-13T01:26:06.686Z,0
2017-08-13T01:27:07.377Z,0
2017-08-13T01:28:08.184Z,0
2017-08-13T01:29:09.205Z,0
2017-08-13T01:30:10.196Z,0
2017-08-13T01:31:11.027Z,0
2017-08-13T01:32:11.768Z,0
2017-08-13T01:33:12.464Z,0
2017-08-13T01:34:13.360Z,0
2017-08-13T01:35:14.386Z,0
2017-08-13T01:36:15.284Z,0
2017-08-13T01:37:16.189Z,0
2017-08-13T01:38:16.938Z,0
2017-08-13T01:39:17.688Z,0
2017-08-13T01:40:18.379Z,0
2017-08-13T01:41:19.152Z,0
2017-08-13T01:42:19.941Z,0
2017-08-13T01:43:20.701Z,0
2017-08-13T01:44:21.525Z,0
2017-08-13T01:45:22.403Z,0
2017-08-13T01:46:23.293Z,0
2017-08-13T01:47:23.970Z,0
2017-08-13T01:48:24.791Z,0
2017-08-13T01:49:25.603Z,0
2017-08-13T01:50:26.365Z,0
2017-08-13T01:51:27.143Z,0
2017-08-13T01:52:27.902Z,0
2017-08-13T01:53:28.649Z,0
2017-08-13T01:54:30.018Z,0
2017-08-13T01:55:30.904Z,0
2017-08-13T01:56:31.708Z,0
2017-08-13T01:57:32.451Z,0
2017-08-13T01:58:33.150Z,0
2017-08-13T01:59:33.910Z,0
2017-08-13T02:00:34.742Z,0
2017-08-13T02:01:35.783Z,0
2017-08-13T02:02:36.583Z,0
2017-08-13T02:03:37.301Z,0
2017-08-13T02:04:38.414Z,0
2017-08-13T02:05:39.239Z,0
2017-08-13T02:06:39.992Z,0
2017-08-13T02:07:40.815Z,0
2017-08-13T02:08:41.904Z,0
2017-08-13T02:09:42.661Z,0
2017-08-13T02:10:43.375Z,0
2017-08-13T02:11:44.231Z,0
2017-08-13T02:12:45.054Z,0
2017-08-13T02:13:45.769Z,0
2017-08-13T02:14:46.552Z,0
2017-08-13T02:15:47.404Z,0
2017-08-13T02:16:48.102Z,0
2017-08-13T02:17:49.056Z,0
2017-08-13T02:18:49.817Z,0
2017-08-13T02:19:50.602Z,0
2017-08-13T02:20:51.352Z,0
2017-08-13T02:21:52.081Z,0
2017-08-13T02:22:53.087Z,0
2017-08-13T02:23:54.141Z,0
2017-08-13T02:24:54.931Z,0
2017-08-13T02:25:55.987Z,0
2017-08-13T02:26:56.793Z,0
2017-08-13T02:27:57.541Z,0
2017-08-13T02:28:58.282Z,0
2017-08-13T02:29:59.067Z,0
2017-08-13T02:30:59.888Z,0
2017-08-13T02:32:00.703Z,0
2017-08-13T02:33:01.456Z,0
2017-08-13T02:34:02.227Z,0
2017-08-13T02:35:03.014Z,0
2017-08-13T02:36:03.972Z,0
2017-08-13T02:37:05.056Z,0
2017-08-13T02:38:05.843Z,0
2017-08-13T02:39:06.612Z,0
2017-08-13T02:40:07.396Z,0
2017-08-13T02:41:08.203Z,0
2017-08-13T02:42:08.934Z,0
2017-08-13T02:43:09.743Z,0
2017-08-13T02:44:10.576Z,0
2017-08-13T02:46:13.103Z,0
2017-08-13T02:47:13.819Z,0
2017-08-13T02:48:14.550Z,0
2017-08-13T02:49:15.528Z,0
2017-08-13T02:50:16.400Z,0
2017-08-13T02:51:17.158Z,0
2017-08-13T02:52:18.059Z,0
2017-08-13T02:53:18.821Z,0
2017-08-13T02:54:19.792Z,0
2017-08-13T02:55:20.545Z,0
2017-08-13T02:56:21.240Z,0
2017-08-13T02:57:21.984Z,0
2017-08-13T02:58:22.714Z,0
2017-08-13T02:59:23.428Z,0
2017-08-13T03:00:24.312Z,0
2017-08-13T03:01:25.082Z,0
2017-08-13T03:02:25.830Z,0
2017-08-13T03:03:26.569Z,0
2017-08-13T03:04:27.302Z,0
2017-08-13T03:05:28.068Z,0
2017-08-13T03:06:28.793Z,0
2017-08-13T03:07:29.550Z,0
2017-08-13T03:08:30.269Z,0
2017-08-13T03:09:31.067Z,0
2017-08-13T03:10:31.822Z,0
2017-08-13T03:11:32.879Z,0
2017-08-13T03:12:33.615Z,0
2017-08-13T03:13:34.397Z,0
2017-08-13T03:14:35.112Z,0
2017-08-13T03:15:35.936Z,0
2017-08-13T03:16:36.775Z,0
2017-08-13T03:17:37.530Z,0
2017-08-13T03:18:38.304Z,0
2017-08-13T03:19:39.026Z,0
2017-08-13T03:20:39.796Z,0
2017-08-13T03:21:40.566Z,0
2017-08-13T03:22:41.364Z,0
2017-08-13T03:23:42.217Z,0
2017-08-13T03:24:42.903Z,0
2017-08-13T03:25:43.751Z,0
2017-08-13T03:26:44.557Z,0
2017-08-13T03:27:45.416Z,0
2017-08-13T03:28:46.199Z,0
2017-08-13T03:29:46.915Z,0
2017-08-13T03:30:48.229Z,0
2017-08-13T03:31:49.281Z,0
2017-08-13T03:32:49.962Z,0
2017-08-13T03:33:50.757Z,0
2017-08-13T03:34:51.557Z,0
2017-08-13T03:35:52.299Z,0
2017-08-13T03:36:53.018Z,0
2017-08-13T03:37:53.816Z,0
2017-08-13T03:38:54.643Z,0
2017-08-13T03:39:55.396Z,0
2017-08-13T03:40:56.079Z,0
2017-08-13T03:41:56.861Z,0
2017-08-13T03:42:57.598Z,4
2017-08-13T03:43:58.352Z,4
2017-08-13T03:44:59.125Z,4
2017-08-13T03:45:59.837Z,0
2017-08-13T03:47:00.570Z,0
2017-08-13T03:48:01.385Z,4
2017-08-13T03:49:02.121Z,4
2017-08-13T03:50:02.869Z,4
2017-08-13T03:51:03.660Z,0
2017-08-13T03:52:04.765Z,4
2017-08-13T03:53:05.490Z,4
2017-08-13T03:54:06.225Z,4
2017-08-13T03:55:06.972Z,4
2017-08-13T03:56:07.752Z,8
2017-08-13T03:57:08.491Z,8
2017-08-13T03:58:09.283Z,8
2017-08-13T03:59:10.009Z,12
2017-08-13T04:00:10.784Z,8
2017-08-13T04:01:11.610Z,12
2017-08-13T04:02:12.497Z,8
2017-08-13T04:03:13.292Z,16
2017-08-13T04:04:13.997Z,12
2017-08-13T04:05:14.773Z,16
2017-08-13T04:06:15.735Z,16
2017-08-13T04:07:16.536Z,12
2017-08-13T04:08:17.311Z,12
2017-08-13T04:09:18.049Z,8
2017-08-13T04:10:19.009Z,12
2017-08-13T04:11:19.784Z,8
2017-08-13T04:12:20.600Z,8
2017-08-13T04:13:21.414Z,12
2017-08-13T04:14:22.154Z,12
2017-08-13T04:15:22.896Z,16
2017-08-13T04:16:23.691Z,16
2017-08-13T04:17:24.444Z,20
2017-08-13T04:18:25.236Z,20
2017-08-13T04:19:26.034Z,24
2017-08-13T04:20:26.794Z,24
2017-08-13T04:21:27.630Z,32
2017-08-13T04:22:28.537Z,32
2017-08-13T04:23:29.302Z,32
2017-08-13T04:24:30.039Z,36
2017-08-13T04:25:30.852Z,44
2017-08-13T04:26:31.661Z,48
2017-08-13T04:27:32.636Z,44
2017-08-13T04:28:33.342Z,48
2017-08-13T04:29:34.349Z,48
2017-08-13T04:30:35.253Z,52
2017-08-13T04:31:36.000Z,56
2017-08-13T04:32:36.743Z,64
2017-08-13T04:33:37.645Z,68
2017-08-13T04:34:38.425Z,72
2017-08-13T04:35:39.428Z,72
2017-08-13T04:36:40.253Z,80
2017-08-13T04:37:41.021Z,84
2017-08-13T04:38:41.820Z,80
2017-08-13T04:39:42.560Z,80
2017-08-13T04:40:43.631Z,80
2017-08-13T04:41:44.344Z,80
2017-08-13T04:42:45.123Z,72
2017-08-13T04:43:45.835Z,68
2017-08-13T04:44:46.590Z,68
2017-08-13T04:45:47.477Z,72
2017-08-13T04:46:48.270Z,84
2017-08-13T04:47:49.012Z,100
2017-08-13T04:48:49.734Z,124
2017-08-13T04:49:50.490Z,148
2017-08-13T04:50:51.208Z,144
2017-08-13T04:51:52.073Z,136
2017-08-13T04:52:52.877Z,140
2017-08-13T04:53:53.665Z,144
2017-08-13T04:54:54.472Z,144
2017-08-13T04:55:55.328Z,132
2017-08-13T04:56:56.088Z,120
2017-08-13T04:57:56.952Z,104
2017-08-13T04:58:57.674Z,92
2017-08-13T04:59:58.456Z,96
2017-08-13T05:00:59.279Z,92
2017-08-13T05:02:00.076Z,96
2017-08-13T05:03:00.891Z,108
2017-08-13T05:04:01.652Z,120
2017-08-13T05:05:02.428Z,136
2017-08-13T05:06:03.233Z,148
2017-08-13T05:07:04.046Z,140
2017-08-13T05:08:04.837Z,132
2017-08-13T05:09:05.633Z,128
2017-08-13T05:10:06.674Z,124
2017-08-13T05:11:07.432Z,128
2017-08-13T05:12:08.224Z,124
2017-08-13T05:13:08.974Z,120
2017-08-13T05:14:09.994Z,120
2017-08-13T05:15:10.723Z,132
2017-08-13T05:16:11.597Z,140
2017-08-13T05:17:12.369Z,136
2017-08-13T05:18:13.094Z,140
2017-08-13T05:19:13.939Z,140
2017-08-13T05:20:15.031Z,144
2017-08-13T05:21:16.291Z,144
2017-08-13T05:22:17.061Z,152
2017-08-13T05:23:17.764Z,160
2017-08-13T05:24:18.510Z,160
2017-08-13T05:25:19.267Z,160
2017-08-13T05:26:19.981Z,168
2017-08-13T05:27:21.059Z,172
2017-08-13T05:28:21.824Z,176
2017-08-13T05:29:22.564Z,184
2017-08-13T05:30:23.272Z,180
2017-08-13T05:31:24.121Z,176
2017-08-13T05:32:24.887Z,168
2017-08-13T05:33:25.908Z,160
2017-08-13T05:34:26.630Z,152
2017-08-13T05:35:27.441Z,144
2017-08-13T05:36:28.177Z,136
2017-08-13T05:37:28.986Z,132
2017-08-13T05:38:34.765Z,132
2017-08-13T05:39:35.549Z,140
2017-08-13T05:40:36.300Z,144
2017-08-13T05:41:37.078Z,148
2017-08-13T05:42:37.834Z,156
2017-08-13T05:43:38.619Z,156
2017-08-13T05:44:39.359Z,156
2017-08-13T05:45:40.342Z,156
2017-08-13T05:46:41.079Z,156
2017-08-13T05:47:41.819Z,152
2017-08-13T05:48:42.605Z,160
2017-08-13T05:49:43.360Z,172
2017-08-13T05:50:44.149Z,184
2017-08-13T05:51:44.887Z,192
2017-08-13T05:52:45.639Z,192
2017-08-13T05:53:46.439Z,196
2017-08-13T05:54:47.296Z,208
2017-08-13T05:55:48.029Z,220
2017-08-13T05:56:48.786Z,224
2017-08-13T05:57:49.544Z,224
2017-08-13T05:58:50.338Z,228
2017-08-13T05:59:51.095Z,232
2017-08-13T06:00:51.907Z,236
2017-08-13T06:01:52.631Z,232
2017-08-13T06:02:53.383Z,228
2017-08-13T06:03:54.324Z,216
2017-08-13T06:04:55.184Z,192
2017-08-13T06:07:11.424Z,188
2017-08-13T06:08:12.322Z,192
2017-08-13T06:09:13.113Z,192
2017-08-13T06:10:13.975Z,200
2017-08-13T06:11:14.732Z,204
2017-08-13T06:12:15.451Z,204
2017-08-13T06:13:16.188Z,208
2017-08-13T06:14:17.111Z,220
2017-08-13T06:15:18.053Z,236
2017-08-13T06:16:19.028Z,248
2017-08-13T06:17:19.816Z,260
2017-08-13T06:18:20.592Z,280
2017-08-13T06:19:21.512Z,292
2017-08-13T06:20:22.358Z,284
2017-08-13T06:21:23.065Z,268
2017-08-13T06:22:23.887Z,264
2017-08-13T06:23:24.814Z,264
2017-08-13T06:24:25.550Z,268
2017-08-13T06:26:42.659Z,328
2017-08-13T06:27:43.426Z,324
2017-08-13T06:28:44.217Z,340
2017-08-13T06:29:45.587Z,368
2017-08-13T06:30:46.563Z,404
2017-08-13T06:31:47.357Z,380
2017-08-13T06:32:48.173Z,328
2017-08-13T06:33:48.999Z,296
2017-08-13T06:34:49.810Z,260
2017-08-13T06:35:50.628Z,256
2017-08-13T06:36:51.380Z,240
2017-08-13T06:37:52.139Z,228
2017-08-13T06:38:52.870Z,252
2017-08-13T06:39:53.582Z,296
2017-08-13T06:40:55.074Z,348
2017-08-13T06:41:55.889Z,400
2017-08-13T06:42:56.685Z,436
2017-08-13T06:43:57.426Z,456
2017-08-13T06:44:58.194Z,472
2017-08-13T06:45:58.999Z,488
2017-08-13T06:47:00.032Z,520
2017-08-13T06:48:00.837Z,556
2017-08-13T06:49:01.994Z,556
2017-08-13T06:50:02.857Z,552
2017-08-13T06:51:03.631Z,560
2017-08-13T06:52:04.679Z,584
2017-08-13T06:53:05.600Z,624
2017-08-13T06:54:06.386Z,692
2017-08-13T06:55:07.453Z,816
2017-08-13T06:56:08.370Z,964
2017-08-13T06:57:09.116Z,1068
2017-08-13T06:58:10.026Z,1040
2017-08-13T06:59:10.774Z,988
2017-08-13T07:00:12.001Z,1040
2017-08-13T07:01:12.783Z,1028
2017-08-13T07:02:13.640Z,1116
2017-08-13T07:03:14.395Z,1144
2017-08-13T07:04:15.220Z,1200
2017-08-13T07:05:16.003Z,1232
2017-08-13T07:06:16.844Z,1176
2017-08-13T07:07:17.743Z,1040
2017-08-13T07:08:18.542Z,976
2017-08-13T07:09:19.348Z,988
2017-08-13T07:10:20.258Z,960
2017-08-13T07:11:21.014Z,772
2017-08-13T07:12:21.814Z,792
2017-08-13T07:13:22.538Z,744
2017-08-13T07:14:23.434Z,676
2017-08-13T07:15:24.523Z,580
2017-08-13T07:16:25.254Z,532
2017-08-13T07:17:26.062Z,512
2017-08-13T07:18:26.827Z,424
2017-08-13T07:19:27.625Z,368
2017-08-13T07:20:28.376Z,340
2017-08-13T07:21:29.152Z,332
2017-08-13T07:22:29.863Z,332
2017-08-13T07:23:30.596Z,352
2017-08-13T07:24:31.362Z,396
2017-08-13T07:25:32.159Z,432
2017-08-13T07:26:32.931Z,412
2017-08-13T07:27:33.672Z,376
2017-08-13T07:28:34.520Z,380
2017-08-13T07:29:35.248Z,460
2017-08-13T07:30:36.059Z,528
2017-08-13T07:31:36.797Z,584
2017-08-13T07:32:37.658Z,616
2017-08-13T07:33:38.376Z,560
2017-08-13T07:34:39.166Z,496
2017-08-13T07:35:40.310Z,464
2017-08-13T07:36:41.123Z,408
2017-08-13T07:37:41.959Z,352
2017-08-13T07:38:42.685Z,324
2017-08-13T07:39:43.493Z,332
2017-08-13T07:40:44.323Z,372
2017-08-13T07:41:45.207Z,468
2017-08-13T07:42:46.004Z,660
2017-08-13T07:43:46.799Z,692
2017-08-13T07:44:47.527Z,632
2017-08-13T07:45:48.332Z,520
2017-08-13T07:46:49.096Z,480
2017-08-13T07:47:49.863Z,444
2017-08-13T07:48:50.634Z,392
2017-08-13T07:49:51.344Z,404
2017-08-13T07:50:52.413Z,588
2017-08-13T07:51:53.136Z,708
2017-08-13T07:52:53.877Z,660
2017-08-13T07:53:54.589Z,592
2017-08-13T07:54:55.517Z,588
2017-08-13T07:57:11.904Z,680
2017-08-13T07:58:12.757Z,640
2017-08-13T07:59:14.086Z,528
2017-08-13T08:00:15.187Z,444
2017-08-13T08:01:15.921Z,436
2017-08-13T08:02:16.725Z,524
2017-08-13T08:03:17.443Z,648
2017-08-13T08:04:18.224Z,724
2017-08-13T08:05:18.959Z,760
2017-08-13T08:06:19.693Z,720
2017-08-13T08:07:20.442Z,616
2017-08-13T08:08:24.231Z,492
2017-08-13T08:09:24.916Z,352
2017-08-13T08:10:25.666Z,332
2017-08-13T08:11:26.457Z,324
2017-08-13T08:12:27.189Z,368
2017-08-13T08:13:27.952Z,440
2017-08-13T08:14:28.648Z,492
2017-08-13T08:15:29.750Z,544
2017-08-13T08:16:30.588Z,592
2017-08-13T08:17:31.323Z,596
2017-08-13T08:18:32.131Z,648
2017-08-13T08:19:33.253Z,684
2017-08-13T08:20:33.976Z,704
2017-08-13T08:21:34.820Z,696
2017-08-13T08:22:35.553Z,700
2017-08-13T08:23:36.345Z,720
2017-08-13T08:24:37.182Z,724
2017-08-13T08:25:37.890Z,704
2017-08-13T08:26:38.870Z,692
2017-08-13T08:27:39.899Z,684
2017-08-13T08:28:40.624Z,684
2017-08-13T08:29:41.428Z,720
2017-08-13T08:30:42.238Z,788
2017-08-13T08:31:43.000Z,868
2017-08-13T08:32:43.727Z,964
2017-08-13T08:33:44.527Z,1032
2017-08-13T08:34:45.537Z,1016
2017-08-13T08:35:46.271Z,964
2017-08-13T08:36:47.082Z,972
2017-08-13T08:37:48.030Z,928
2017-08-13T08:38:48.801Z,852
2017-08-13T08:39:49.502Z,804
2017-08-13T08:40:50.282Z,844
2017-08-13T08:41:51.021Z,868
2017-08-13T08:42:51.794Z,884
2017-08-13T08:43:52.785Z,824
2017-08-13T08:44:53.552Z,752
2017-08-13T08:45:54.601Z,796
2017-08-13T08:46:55.541Z,736
2017-08-13T08:47:56.293Z,752
2017-08-13T08:48:57.340Z,788
2017-08-13T08:49:58.294Z,768
2017-08-13T08:50:59.105Z,700
2017-08-13T08:51:59.963Z,648
2017-08-13T08:53:00.778Z,632
2017-08-13T08:54:01.768Z,612
2017-08-13T08:55:02.566Z,572
2017-08-13T08:56:03.238Z,576
2017-08-13T08:57:04.064Z,536
2017-08-13T08:58:04.779Z,496
2017-08-13T08:59:05.602Z,448
2017-08-13T09:00:06.472Z,456
2017-08-13T09:01:07.350Z,424
2017-08-13T09:02:08.116Z,424
2017-08-13T09:03:08.866Z,456
2017-08-13T09:04:09.602Z,508
2017-08-13T09:05:10.345Z,552
2017-08-13T09:06:11.133Z,612
2017-08-13T09:07:11.902Z,688
2017-08-13T09:08:12.660Z,788
2017-08-13T09:09:13.432Z,864
2017-08-13T09:10:14.239Z,896
2017-08-13T09:11:14.996Z,876
2017-08-13T09:12:15.756Z,748
2017-08-13T09:13:16.536Z,680
2017-08-13T09:14:17.307Z,612
2017-08-13T09:15:18.550Z,612
2017-08-13T09:16:19.521Z,640
2017-08-13T09:17:20.330Z,684
2017-08-13T09:18:21.079Z,684
2017-08-13T09:19:21.801Z,648
2017-08-13T09:20:22.781Z,620
2017-08-13T09:21:23.600Z,632
2017-08-13T09:22:24.618Z,632
2017-08-13T09:23:25.332Z,624
2017-08-13T09:24:26.203Z,616
2017-08-13T09:25:27.028Z,612
2017-08-13T09:26:28.039Z,592
2017-08-13T09:27:28.784Z,564
2017-08-13T09:28:29.892Z,520
2017-08-13T09:29:30.623Z,504
2017-08-13T09:30:31.617Z,548
2017-08-13T09:31:32.502Z,572
2017-08-13T09:32:33.336Z,564
2017-08-13T09:33:34.178Z,612
2017-08-13T09:34:35.508Z,700
2017-08-13T09:35:36.265Z,872
2017-08-13T09:36:37.351Z,1060
2017-08-13T09:37:38.342Z,1160
2017-08-13T09:38:39.550Z,1060
2017-08-13T09:39:40.632Z,1044
2017-08-13T09:40:41.437Z,1120
2017-08-13T09:41:42.161Z,1192
2017-08-13T09:42:42.929Z,1216
2017-08-13T09:43:43.842Z,1080
2017-08-13T09:44:44.631Z,876
2017-08-13T09:45:45.545Z,676
2017-08-13T09:46:46.298Z,568
2017-08-13T09:47:47.026Z,568
2017-08-13T09:48:47.817Z,640
2017-08-13T09:49:48.594Z,752
2017-08-13T09:50:49.651Z,816
2017-08-13T09:51:50.402Z,868
2017-08-13T09:52:51.106Z,944
2017-08-13T09:53:51.925Z,1076
2017-08-13T09:54:52.662Z,1372
2017-08-13T09:55:53.816Z,1364
2017-08-13T09:56:54.543Z,1368
2017-08-13T09:57:55.367Z,1344
2017-08-13T09:58:56.087Z,1292
2017-08-13T09:59:57.936Z,1228
2017-08-13T10:00:59.016Z,1248
2017-08-13T10:02:00.007Z,1404
2017-08-13T10:03:00.714Z,1628
2017-08-13T10:04:01.865Z,1776
2017-08-13T10:05:02.764Z,1920
2017-08-13T10:06:03.703Z,2072
2017-08-13T10:07:05.662Z,1744
2017-08-13T10:08:06.430Z,1672
2017-08-13T10:09:07.278Z,2072
2017-08-13T10:11:23.706Z,3356
2017-08-13T10:12:24.476Z,3500
2017-08-13T10:13:25.277Z,3276
2017-08-13T10:14:26.040Z,3412
2017-08-13T10:15:27.516Z,3368
2017-08-13T10:16:28.608Z,3712
2017-08-13T10:17:29.344Z,5184
2017-08-13T10:18:30.084Z,6148
2017-08-13T10:19:31.615Z,7196
2017-08-13T10:20:32.409Z,5456
2017-08-13T10:21:33.973Z,4140
2017-08-13T10:22:34.982Z,4788
2017-08-13T10:23:35.793Z,2560
2017-08-13T10:24:36.616Z,2780
2017-08-13T10:25:38.055Z,3400
2017-08-13T10:26:38.841Z,4436
2017-08-13T10:27:39.676Z,3080
2017-08-13T10:28:40.392Z,3032
2017-08-13T10:29:41.166Z,3740
2017-08-13T10:30:42.116Z,3640
2017-08-13T10:31:42.907Z,3556
2017-08-13T10:32:44.083Z,2932
2017-08-13T10:33:45.004Z,2968
2017-08-13T10:34:45.825Z,2828
2017-08-13T10:35:46.993Z,2460
2017-08-13T10:36:48.023Z,3244
2017-08-13T10:37:48.745Z,3368
2017-08-13T10:38:49.556Z,3100
2017-08-13T10:39:50.281Z,3072
2017-08-13T10:40:51.019Z,3064
2017-08-13T10:41:51.885Z,3356
2017-08-13T10:42:52.986Z,3332
2017-08-13T10:43:53.677Z,2916
2017-08-13T10:44:54.969Z,2496
2017-08-13T10:45:56.005Z,3092
2017-08-13T10:46:56.712Z,2852
2017-08-13T10:47:57.486Z,2496
2017-08-13T10:48:58.370Z,2376
2017-08-13T10:49:59.713Z,2420
2017-08-13T10:51:00.508Z,3028
2017-08-13T10:52:01.232Z,3584
2017-08-13T10:53:02.034Z,3164
2017-08-13T10:54:02.748Z,3220
2017-08-13T10:55:03.660Z,3196
2017-08-13T10:56:04.543Z,2720
2017-08-13T10:57:05.351Z,3184
2017-08-13T10:58:06.234Z,2972
2017-08-13T10:59:06.978Z,2928
2017-08-13T11:00:08.044Z,2648
2017-08-13T11:01:09.105Z,2396
2017-08-13T11:02:10.284Z,2464
2017-08-13T11:03:11.109Z,2516
2017-08-13T11:04:11.940Z,2352
2017-08-13T11:05:12.667Z,2596
2017-08-13T11:06:13.517Z,2948
2017-08-13T11:07:14.310Z,3052
2017-08-13T11:08:15.093Z,2704
2017-08-13T11:09:15.804Z,2564
2017-08-13T11:10:16.992Z,2644
2017-08-13T11:11:17.729Z,2600
2017-08-13T11:12:18.498Z,2448
2017-08-13T11:13:19.437Z,2636
2017-08-13T11:14:20.201Z,2360
2017-08-13T11:15:21.083Z,2560
2017-08-13T11:16:21.934Z,2908
2017-08-13T11:17:22.699Z,3252
2017-08-13T11:18:23.442Z,3072
2017-08-13T11:19:24.313Z,2936
2017-08-13T11:20:25.010Z,2668
2017-08-13T11:21:25.772Z,2756
2017-08-13T11:22:26.507Z,2952
2017-08-13T11:23:27.208Z,2972
2017-08-13T11:24:28.058Z,2796
2017-08-13T11:25:28.788Z,2608
2017-08-13T11:26:29.619Z,2644
2017-08-13T11:27:30.493Z,2988
2017-08-13T11:28:31.258Z,2832
2017-08-13T11:29:32.161Z,2600
2017-08-13T11:30:33.124Z,2364
2017-08-13T11:31:34.137Z,2308
2017-08-13T11:32:35.004Z,2296
2017-08-13T11:33:35.756Z,2300
2017-08-13T11:34:36.636Z,2352
2017-08-13T11:35:37.407Z,2460
2017-08-13T11:36:38.755Z,2448
2017-08-13T11:37:39.845Z,2452
2017-08-13T11:38:40.657Z,2676
2017-08-13T11:39:41.683Z,2776
2017-08-13T11:40:42.712Z,2592
2017-08-13T11:41:43.440Z,2604
2017-08-13T11:42:44.703Z,2572
2017-08-13T11:43:45.442Z,2592
2017-08-13T11:44:46.523Z,2792
2017-08-13T11:45:47.792Z,3136
2017-08-13T11:46:48.699Z,2816
2017-08-13T11:47:49.911Z,2828
2017-08-13T11:48:50.761Z,2404
2017-08-13T11:49:51.589Z,2340
2017-08-13T11:50:52.310Z,3108
2017-08-13T11:51:53.133Z,3020
2017-08-13T11:52:53.894Z,3040
2017-08-13T11:53:54.669Z,3092
2017-08-13T11:54:55.831Z,2960
2017-08-13T11:55:56.884Z,2332
2017-08-13T11:56:57.654Z,1876
2017-08-13T11:57:58.499Z,2352
2017-08-13T11:58:59.461Z,2252
2017-08-13T12:00:00.834Z,2164
2017-08-13T12:01:02.155Z,2156
2017-08-13T12:02:03.224Z,2172
2017-08-13T12:03:04.025Z,2056
2017-08-13T12:04:04.807Z,2176
2017-08-13T12:05:06.138Z,2508
2017-08-13T12:06:07.142Z,2380
2017-08-13T12:07:07.879Z,2652
2017-08-13T12:08:09.015Z,2064
2017-08-13T12:09:09.839Z,2488
2017-08-13T12:10:10.896Z,2468
2017-08-13T12:11:11.735Z,1956
2017-08-13T12:12:12.828Z,1552
2017-08-13T12:13:13.575Z,1552
2017-08-13T12:14:14.423Z,1544
2017-08-13T12:15:15.641Z,1664
2017-08-13T12:16:16.545Z,1836
2017-08-13T12:17:17.496Z,1772
2017-08-13T12:18:18.318Z,1972
2017-08-13T12:22:41.195Z,2320
2017-08-13T12:23:42.212Z,2524
2017-08-13T12:24:43.843Z,2216
2017-08-13T12:25:45.279Z,2040
2017-08-13T12:26:47.465Z,1884
2017-08-13T12:27:49.222Z,1844
2017-08-13T12:28:50.744Z,1784
2017-08-13T12:29:52.663Z,1724
2017-08-13T12:30:53.937Z,1668
2017-08-13T12:31:55.763Z,1448
2017-08-13T12:32:56.583Z,1316
2017-08-13T12:33:57.555Z,1592
2017-08-13T12:36:00.359Z,1924
2017-08-13T12:37:01.605Z,1984
2017-08-13T12:38:03.119Z,1944
2017-08-13T12:39:04.305Z,1836
2017-08-13T12:40:05.426Z,1648
2017-08-13T12:41:06.790Z,1320
2017-08-13T12:42:07.792Z,1616
2017-08-13T12:43:08.760Z,1224
2017-08-13T12:44:15.125Z,1368
2017-08-13T12:45:15.942Z,2140
2017-08-13T12:46:16.782Z,1944
2017-08-13T12:47:17.774Z,1792
2017-08-13T12:48:18.628Z,1744
2017-08-13T12:49:20.055Z,1272
2017-08-13T12:50:21.887Z,1764
2017-08-13T12:51:23.062Z,1276
2017-08-13T12:52:24.450Z,1396
2017-08-13T12:53:25.401Z,1528
2017-08-13T12:54:26.232Z,1464
2017-08-13T12:55:27.163Z,1652
2017-08-13T12:56:28.221Z,1652
2017-08-13T12:57:29.153Z,1684
2017-08-13T12:58:30.015Z,1684
2017-08-13T12:59:31.115Z,1624
2017-08-13T13:00:31.976Z,1652
2017-08-13T13:01:32.861Z,1608
2017-08-13T13:02:34.384Z,1616
2017-08-13T13:03:40.769Z,1588
2017-08-13T13:04:42.005Z,1552
2017-08-13T13:06:03.188Z,1528
2017-08-13T13:07:04.512Z,1488
2017-08-13T13:08:05.317Z,1468
2017-08-13T13:09:06.160Z,1460
2017-08-13T13:10:07.592Z,1464
2017-08-13T13:11:08.362Z,1416
2017-08-13T13:12:09.312Z,1236
2017-08-13T13:13:10.956Z,1380
2017-08-13T13:14:12.258Z,1440
2017-08-13T13:16:16.460Z,1504
2017-08-13T13:17:22.324Z,1464
2017-08-13T13:18:23.832Z,1420
2017-08-13T13:19:24.721Z,1372
2017-08-13T13:20:25.569Z,1360
2017-08-13T13:21:26.786Z,1348
2017-08-13T13:22:28.594Z,1336
2017-08-13T13:23:30.573Z,1332
2017-08-13T13:26:48.836Z,1384
2017-08-13T13:27:49.917Z,1344
2017-08-13T13:28:50.957Z,1340
2017-08-13T13:29:51.992Z,1300
2017-08-13T13:30:53.451Z,1308
2017-08-13T13:31:54.909Z,1352
2017-08-13T13:32:56.429Z,1376
2017-08-13T13:34:02.175Z,1336
2017-08-13T13:35:02.866Z,1312
2017-08-13T13:36:04.103Z,1292
2017-08-13T13:37:06.922Z,1056
2017-08-13T13:38:08.159Z,1100
2017-08-13T13:39:09.063Z,1232
2017-08-13T13:41:25.529Z,1144
2017-08-13T13:42:26.469Z,1212
2017-08-13T13:43:27.230Z,1200
2017-08-13T13:44:28.016Z,1200
2017-08-13T13:45:28.899Z,1204
2017-08-13T13:46:30.368Z,1196
2017-08-13T13:48:47.252Z,1220
2017-08-13T13:49:48.056Z,1240
2017-08-13T13:50:48.972Z,1260
2017-08-13T13:51:49.717Z,1252
2017-08-13T13:52:50.526Z,1268
2017-08-13T13:53:51.309Z,1296
2017-08-13T13:54:52.146Z,1288
2017-08-13T13:55:53.213Z,1232
2017-08-13T13:56:54.240Z,1192
2017-08-13T13:57:55.469Z,1172
2017-08-13T13:58:56.415Z,1164
2017-08-13T13:59:57.208Z,1172
2017-08-13T14:01:59.900Z,1160
2017-08-13T14:03:01.231Z,1180
2017-08-13T14:04:01.990Z,1168
2017-08-13T14:05:03.142Z,1160
2017-08-13T14:06:04.037Z,1156
2017-08-13T14:07:04.895Z,1164
2017-08-13T14:08:05.714Z,1172
2017-08-13T14:09:06.516Z,816
2017-08-13T14:10:07.457Z,844
2017-08-13T14:11:08.908Z,1152
2017-08-13T14:12:10.070Z,1160
2017-08-13T14:13:11.475Z,996
2017-08-13T14:14:12.281Z,832
2017-08-13T14:15:14.265Z,804
2017-08-13T14:16:15.566Z,1144
2017-08-13T14:17:16.684Z,1164
2017-08-13T14:18:17.563Z,1148
2017-08-13T14:20:20.337Z,960
2017-08-13T14:21:21.236Z,836
2017-08-13T14:22:22.312Z,956
2017-08-13T14:23:23.484Z,872
2017-08-13T14:24:24.950Z,1000
2017-08-13T14:26:27.780Z,1132
2017-08-13T14:27:33.561Z,852
2017-08-13T14:30:38.618Z,1168
2017-08-13T14:31:39.542Z,860
2017-08-13T14:32:40.711Z,796
2017-08-13T14:33:41.595Z,768
2017-08-13T14:34:42.362Z,756
2017-08-13T14:35:43.556Z,752